createdAt,value
2018-07-12T00:01:46.310Z,16.00
2018-07-12T00:04:13.845Z,16.00
2018-07-12T00:06:41.396Z,16.00
2018-07-12T00:09:09.258Z,16.00
2018-07-12T00:11:36.982Z,16.00
2018-07-12T00:14:04.549Z,16.00
2018-07-12T00:16:32.110Z,16.00
2018-07-12T00:18:59.664Z,16.00
2018-07-12T00:21:27.220Z,16.00
2018-07-12T00:23:54.787Z,16.00
2018-07-12T00:26:23.800Z,16.00
2018-07-12T00:28:51.330Z,15.90
2018-07-12T00:31:18.887Z,16.00
2018-07-12T00:33:46.839Z,16.00
2018-07-12T00:36:14.560Z,16.00
2018-07-12T00:38:42.117Z,15.90
2018-07-12T00:41:09.676Z,15.90
2018-07-12T00:43:37.208Z,15.90
2018-07-12T00:46:04.748Z,15.80
2018-07-12T00:48:32.512Z,15.80
2018-07-12T00:51:00.052Z,15.80
2018-07-12T00:53:29.352Z,15.70
2018-07-12T00:55:57.757Z,15.60
2018-07-12T00:58:25.622Z,15.60
2018-07-12T01:00:53.830Z,15.60
2018-07-12T01:03:21.390Z,15.60
2018-07-12T01:05:49.670Z,15.50
2018-07-12T01:08:17.228Z,15.50
2018-07-12T01:10:45.328Z,15.50
2018-07-12T01:13:12.886Z,15.50
2018-07-12T01:15:40.483Z,15.40
2018-07-12T01:18:08.184Z,15.40
2018-07-12T01:20:35.798Z,15.40
2018-07-12T01:23:03.382Z,15.40
2018-07-12T01:25:30.940Z,15.40
2018-07-12T01:27:58.509Z,15.40
2018-07-12T01:30:26.385Z,15.40
2018-07-12T01:32:53.949Z,15.20
2018-07-12T01:35:22.345Z,15.20
2018-07-12T01:37:49.885Z,15.20
2018-07-12T01:40:17.441Z,15.20
2018-07-12T01:42:44.991Z,15.20
2018-07-12T01:45:13.329Z,15.20
2018-07-12T01:47:40.884Z,15.20
2018-07-12T01:50:08.653Z,15.20
2018-07-12T01:52:36.221Z,15.20
2018-07-12T01:55:03.810Z,15.20
2018-07-12T01:57:31.506Z,15.20
2018-07-12T01:59:59.074Z,15.20
2018-07-12T02:02:26.933Z,15.10
2018-07-12T02:04:54.479Z,15.10
2018-07-12T02:07:22.051Z,15.10
2018-07-12T02:09:51.484Z,15.10
2018-07-12T02:12:19.377Z,15.10
2018-07-12T02:14:46.937Z,15.10
2018-07-12T02:17:14.486Z,15.00
2018-07-12T02:19:42.027Z,15.00
2018-07-12T02:22:09.602Z,15.00
2018-07-12T02:24:37.150Z,15.00
2018-07-12T02:27:04.725Z,15.00
2018-07-12T02:29:32.310Z,15.00
2018-07-12T02:31:59.860Z,15.00
2018-07-12T02:34:27.413Z,15.00
2018-07-12T02:36:55.679Z,15.00
2018-07-12T02:39:23.245Z,15.00
2018-07-12T02:41:50.793Z,14.90
2018-07-12T02:44:19.040Z,14.90
2018-07-12T02:46:46.611Z,14.90
2018-07-12T02:49:14.422Z,14.90
2018-07-12T02:51:41.970Z,14.90
2018-07-12T02:54:09.579Z,14.90
2018-07-12T02:56:38.944Z,14.80
2018-07-12T02:59:06.763Z,14.80
2018-07-12T03:01:34.317Z,14.80
2018-07-12T03:04:01.860Z,14.80
2018-07-12T03:06:29.435Z,14.80
2018-07-12T03:08:57.247Z,14.80
2018-07-12T03:11:24.789Z,14.80
2018-07-12T03:13:52.466Z,14.80
2018-07-12T03:16:20.015Z,14.80
2018-07-12T03:18:47.562Z,14.80
2018-07-12T03:21:15.122Z,14.80
2018-07-12T03:23:42.676Z,14.70
2018-07-12T03:26:10.226Z,14.80
2018-07-12T03:28:37.776Z,14.80
2018-07-12T03:31:06.167Z,14.80
2018-07-12T03:33:33.733Z,14.80
2018-07-12T03:36:02.306Z,14.80
2018-07-12T03:38:29.863Z,14.80
2018-07-12T03:40:57.434Z,14.80
2018-07-12T03:43:25.261Z,14.80
2018-07-12T03:45:52.826Z,14.90
2018-07-12T03:48:20.398Z,14.90
2018-07-12T03:50:47.950Z,14.90
2018-07-12T03:53:15.513Z,15.00
2018-07-12T03:55:43.070Z,15.00
2018-07-12T03:58:10.683Z,15.00
2018-07-12T04:00:38.376Z,15.00
2018-07-12T04:03:06.269Z,15.00
2018-07-12T04:05:33.839Z,15.20
2018-07-12T04:08:01.406Z,15.10
2018-07-12T04:10:28.974Z,15.20
2018-07-12T04:12:56.534Z,15.30
2018-07-12T04:15:24.101Z,15.20
2018-07-12T04:17:51.675Z,15.20
2018-07-12T04:20:20.154Z,15.10
2018-07-12T04:22:47.937Z,15.10
2018-07-12T04:25:16.661Z,15.10
2018-07-12T04:27:44.231Z,15.10
2018-07-12T04:30:11.848Z,15.10
2018-07-12T04:32:39.445Z,15.20
2018-07-12T04:35:07.714Z,15.20
2018-07-12T04:37:35.285Z,15.20
2018-07-12T04:40:02.837Z,15.20
2018-07-12T04:42:30.383Z,15.20
2018-07-12T04:44:58.045Z,15.30
2018-07-12T04:47:25.618Z,15.30
2018-07-12T04:49:53.193Z,15.40
2018-07-12T04:52:20.739Z,15.40
2018-07-12T04:54:48.293Z,15.40
2018-07-12T04:57:15.849Z,15.40
2018-07-12T04:59:43.406Z,15.40
2018-07-12T05:02:11.039Z,15.40
2018-07-12T05:04:38.593Z,15.50
2018-07-12T05:07:06.149Z,15.60
2018-07-12T05:09:33.690Z,15.60
2018-07-12T05:12:01.438Z,15.60
2018-07-12T05:14:28.997Z,15.70
2018-07-12T05:16:56.592Z,15.70
2018-07-12T05:19:26.240Z,15.70
2018-07-12T05:21:54.431Z,15.70
2018-07-12T05:24:21.953Z,15.80
2018-07-12T05:26:50.435Z,15.90
2018-07-12T05:29:18.025Z,15.90
2018-07-12T05:31:45.670Z,15.90
2018-07-12T05:34:13.489Z,15.90
2018-07-12T05:36:50.885Z,15.90
2018-07-12T05:39:20.526Z,15.90
2018-07-12T05:41:49.701Z,15.90
2018-07-12T05:44:18.214Z,15.90
2018-07-12T05:46:47.226Z,15.90
2018-07-12T05:49:16.770Z,16.00
2018-07-12T05:51:46.147Z,16.10
2018-07-12T05:54:17.317Z,16.10
2018-07-12T05:56:48.087Z,16.10
2018-07-12T05:59:16.981Z,16.10
2018-07-12T06:01:56.822Z,16.10
2018-07-12T06:04:25.333Z,16.10
2018-07-12T06:06:54.410Z,16.10
2018-07-12T06:09:23.250Z,16.20
2018-07-12T06:11:52.779Z,16.20
2018-07-12T06:14:21.320Z,16.10
2018-07-12T06:16:49.863Z,16.20
2018-07-12T06:19:18.385Z,16.10
2018-07-12T06:21:46.917Z,16.10
2018-07-12T06:24:17.083Z,16.00
2018-07-12T06:26:45.658Z,16.00
2018-07-12T06:29:14.817Z,16.00
2018-07-12T06:31:43.875Z,16.00
2018-07-12T06:34:13.359Z,16.10
2018-07-12T06:36:45.774Z,16.10
2018-07-12T06:39:15.945Z,16.10
2018-07-12T06:41:44.522Z,16.10
2018-07-12T06:44:15.441Z,16.10
2018-07-12T06:46:43.970Z,16.10
2018-07-12T06:49:12.846Z,16.00
2018-07-12T06:51:42.699Z,16.10
2018-07-12T06:54:11.600Z,16.10
2018-07-12T06:56:40.110Z,16.10
2018-07-12T06:59:08.633Z,16.00
2018-07-12T07:01:37.160Z,15.90
2018-07-12T07:04:06.001Z,16.00
2018-07-12T07:06:35.841Z,15.90
2018-07-12T07:09:06.486Z,15.90
2018-07-12T07:11:36.050Z,15.90
2018-07-12T07:14:04.845Z,15.80
2018-07-12T07:16:33.606Z,15.80
2018-07-12T07:19:04.255Z,15.80
2018-07-12T07:21:33.396Z,15.70
2018-07-12T07:24:01.925Z,15.70
2018-07-12T07:26:30.832Z,15.70
2018-07-12T07:28:59.380Z,15.80
2018-07-12T07:31:27.966Z,15.80
2018-07-12T07:33:57.194Z,15.80
2018-07-12T07:36:26.274Z,15.80
2018-07-12T07:38:55.307Z,15.70
2018-07-12T07:41:24.889Z,15.70
2018-07-12T07:43:54.068Z,15.70
2018-07-12T07:46:23.963Z,15.80
2018-07-12T07:48:53.796Z,15.60
2018-07-12T07:51:22.997Z,15.70
2018-07-12T07:53:52.445Z,15.60
2018-07-12T07:56:21.340Z,15.60
2018-07-12T07:58:49.896Z,15.70
2018-07-12T08:01:18.476Z,15.70
2018-07-12T08:03:47.661Z,15.70
2018-07-12T08:06:16.611Z,15.70
2018-07-12T08:08:47.307Z,15.70
2018-07-12T08:11:16.723Z,15.80
2018-07-12T08:13:45.318Z,15.80
2018-07-12T08:16:14.369Z,15.80
2018-07-12T08:19:02.808Z,15.80
2018-07-12T08:21:34.192Z,15.80
2018-07-12T08:24:05.511Z,15.80
2018-07-12T08:26:36.409Z,15.80
2018-07-12T08:29:07.526Z,15.80
2018-07-12T08:31:36.119Z,15.80
2018-07-12T08:34:05.246Z,15.80
2018-07-12T08:36:34.833Z,15.80
2018-07-12T08:39:05.662Z,15.80
2018-07-12T08:41:34.213Z,15.70
2018-07-12T08:44:03.386Z,15.80
2018-07-12T08:46:32.697Z,15.80
2018-07-12T08:49:01.928Z,15.80
2018-07-12T08:51:30.807Z,15.80
2018-07-12T08:53:59.367Z,15.80
2018-07-12T08:56:29.199Z,15.80
2018-07-12T08:58:57.803Z,15.80
2018-07-12T09:01:26.343Z,15.90
2018-07-12T09:03:57.690Z,15.90
2018-07-12T09:06:27.812Z,15.90
2018-07-12T09:08:57.362Z,15.90
2018-07-12T09:11:25.950Z,16.00
2018-07-12T09:13:56.023Z,16.00
2018-07-12T09:16:24.918Z,16.00
2018-07-12T09:18:53.459Z,15.90
2018-07-12T09:21:22.329Z,16.00
2018-07-12T09:23:51.243Z,16.00
2018-07-12T09:26:19.815Z,16.00
2018-07-12T09:28:48.380Z,16.10
2018-07-12T09:31:18.097Z,16.10
2018-07-12T09:33:46.989Z,16.00
2018-07-12T09:36:15.877Z,16.00
2018-07-12T09:38:47.706Z,16.10
2018-07-12T09:41:16.925Z,16.10
2018-07-12T09:43:46.452Z,16.20
2018-07-12T09:46:15.582Z,16.10
2018-07-12T09:48:46.721Z,16.10
2018-07-12T09:51:15.979Z,16.00
2018-07-12T09:53:46.169Z,16.00
2018-07-12T09:56:15.749Z,16.00
2018-07-12T09:58:45.381Z,16.00
2018-07-12T10:01:20.625Z,15.90
2018-07-12T10:03:51.827Z,15.80
2018-07-12T10:06:30.422Z,15.70
2018-07-12T10:09:04.893Z,15.70
2018-07-12T10:11:40.216Z,15.70
2018-07-12T10:14:14.769Z,15.70
2018-07-12T10:16:44.337Z,15.60
2018-07-12T10:19:14.180Z,15.80
2018-07-12T10:21:42.759Z,15.70
2018-07-12T10:24:12.243Z,15.60
2018-07-12T10:26:40.818Z,15.70
2018-07-12T10:29:10.043Z,15.70
2018-07-12T10:31:38.608Z,15.60
2018-07-12T10:34:07.143Z,15.70
2018-07-12T10:36:35.892Z,15.60
2018-07-12T10:39:07.476Z,15.60
2018-07-12T10:41:36.038Z,15.60
2018-07-12T10:44:04.671Z,15.50
2018-07-12T10:46:33.221Z,15.60
2018-07-12T10:49:02.130Z,15.50
2018-07-12T10:51:31.654Z,15.60
2018-07-12T10:54:00.203Z,15.60
2018-07-12T10:56:29.299Z,15.60
2018-07-12T10:58:58.806Z,15.60
2018-07-12T11:01:28.346Z,15.70
2018-07-12T11:03:57.251Z,15.70
2018-07-12T11:06:26.626Z,15.80
2018-07-12T11:08:55.163Z,15.70
2018-07-12T11:11:24.050Z,15.70
2018-07-12T11:13:53.914Z,15.80
2018-07-12T11:16:23.086Z,15.80
2018-07-12T11:18:51.633Z,15.70
2018-07-12T11:21:20.206Z,15.60
2018-07-12T11:23:49.074Z,15.70
2018-07-12T11:26:17.945Z,16.00
2018-07-12T11:28:47.797Z,16.00
2018-07-12T11:31:16.675Z,15.90
2018-07-12T11:33:46.309Z,16.10
2018-07-12T11:36:15.205Z,16.10
2018-07-12T11:38:44.548Z,16.20
2018-07-12T11:41:13.261Z,16.20
2018-07-12T11:43:41.926Z,16.20
2018-07-12T11:46:12.065Z,16.30
2018-07-12T11:48:41.467Z,16.20
2018-07-12T11:51:11.236Z,16.30
2018-07-12T11:53:40.770Z,16.30
2018-07-12T11:56:09.643Z,16.40
2018-07-12T11:58:38.522Z,16.40
2018-07-12T12:01:11.513Z,16.50
2018-07-12T12:03:41.374Z,16.60
2018-07-12T12:06:09.932Z,16.50
2018-07-12T12:08:38.480Z,16.40
2018-07-12T12:11:07.085Z,16.40
2018-07-12T12:13:35.671Z,16.30
2018-07-12T12:16:04.554Z,16.30
2018-07-12T12:18:33.427Z,16.40
2018-07-12T12:21:02.350Z,16.30
2018-07-12T12:23:31.299Z,16.30
2018-07-12T12:26:00.746Z,16.30
2018-07-12T12:28:29.284Z,16.40
2018-07-12T12:30:58.174Z,16.60
2018-07-12T12:33:28.122Z,16.70
2018-07-12T12:35:56.871Z,16.70
2018-07-12T12:38:25.745Z,16.70
2018-07-12T12:40:54.726Z,16.90
2018-07-12T12:43:23.953Z,16.90
2018-07-12T12:45:52.811Z,16.90
2018-07-12T12:48:22.095Z,17.00
2018-07-12T12:50:50.681Z,16.90
2018-07-12T12:53:19.572Z,16.90
2018-07-12T12:55:48.164Z,16.90
2018-07-12T12:58:18.549Z,16.90
2018-07-12T13:00:47.112Z,16.90
2018-07-12T13:03:15.656Z,16.90
2018-07-12T13:05:45.059Z,17.00
2018-07-12T13:08:15.124Z,17.10
2018-07-12T13:10:44.513Z,17.10
2018-07-12T13:13:14.524Z,17.00
2018-07-12T13:15:43.854Z,17.10
2018-07-12T13:18:12.894Z,17.20
2018-07-12T13:20:42.150Z,17.30
2018-07-12T13:23:11.370Z,17.20
2018-07-12T13:25:40.006Z,17.30
2018-07-12T13:28:09.128Z,17.30
2018-07-12T13:30:38.652Z,17.30
2018-07-12T13:33:07.970Z,17.30
2018-07-12T13:35:36.515Z,17.30
2018-07-12T13:38:05.601Z,17.30
2018-07-12T13:40:34.129Z,17.30
2018-07-12T13:43:02.990Z,17.40
2018-07-12T13:45:31.918Z,17.40
2018-07-12T13:48:01.824Z,17.50
2018-07-12T13:50:30.962Z,17.60
2018-07-12T13:53:00.403Z,17.60
2018-07-12T13:55:29.865Z,17.60
2018-07-12T13:57:58.803Z,17.70
2018-07-12T14:00:28.185Z,17.80
2018-07-12T14:02:56.745Z,17.80
2018-07-12T14:05:26.619Z,17.80
2018-07-12T14:07:56.249Z,17.80
2018-07-12T14:10:26.080Z,17.80
2018-07-12T14:12:55.387Z,17.90
2018-07-12T14:15:25.241Z,18.00
2018-07-12T14:17:55.283Z,17.90
2018-07-12T14:20:27.583Z,18.00
2018-07-12T14:23:02.631Z,18.20
2018-07-12T14:25:36.917Z,18.20
2018-07-12T14:28:07.764Z,18.30
2018-07-12T14:30:39.700Z,18.30
2018-07-12T14:33:13.614Z,18.30
2018-07-12T14:35:44.115Z,18.30
2018-07-12T14:38:14.462Z,18.50
2018-07-12T14:40:47.170Z,18.50
2018-07-12T14:43:17.069Z,18.60
2018-07-12T14:48:27.832Z,18.80
2018-07-12T14:51:01.707Z,19.00
2018-07-12T14:53:42.278Z,19.20
2018-07-12T14:56:13.769Z,19.20
2018-07-12T14:58:45.866Z,19.40
2018-07-12T15:01:18.020Z,19.60
2018-07-12T15:03:47.888Z,19.60
2018-07-12T15:06:18.527Z,19.80
2018-07-12T15:08:47.831Z,20.00
2018-07-12T15:11:18.698Z,20.10
2018-07-12T15:13:49.855Z,20.20
2018-07-12T15:16:24.412Z,20.20
2018-07-12T15:18:58.832Z,20.10
2018-07-12T15:21:28.051Z,19.90
2018-07-12T15:24:00.171Z,19.90
2018-07-12T15:26:30.862Z,19.80
2018-07-12T15:29:07.229Z,19.80
2018-07-12T15:31:37.844Z,19.70
2018-07-12T15:34:14.309Z,19.70
2018-07-12T15:36:44.627Z,19.80
2018-07-12T15:39:14.834Z,19.80
2018-07-12T15:41:46.127Z,19.70
2018-07-12T15:44:27.202Z,19.70
2018-07-12T15:47:03.534Z,19.60
2018-07-12T15:49:35.475Z,19.60
2018-07-12T15:52:16.979Z,19.70
2018-07-12T15:54:46.858Z,19.70
2018-07-12T15:57:23.749Z,19.60
2018-07-12T15:59:55.063Z,19.70
2018-07-12T16:02:31.030Z,19.60
2018-07-12T16:05:07.038Z,19.60
2018-07-12T16:07:38.798Z,19.60
2018-07-12T16:10:11.108Z,19.60
2018-07-12T16:12:41.138Z,19.50
2018-07-12T16:15:10.614Z,19.50
2018-07-12T16:17:43.569Z,19.60
2018-07-12T16:20:13.361Z,19.60
2018-07-12T16:22:42.976Z,19.50
2018-07-12T16:25:12.203Z,19.60
2018-07-12T16:27:41.163Z,19.60
2018-07-12T16:30:13.518Z,19.60
2018-07-12T16:32:43.965Z,19.70
2018-07-12T16:35:16.701Z,19.70
2018-07-12T16:37:46.922Z,19.70
2018-07-12T16:40:18.629Z,19.70
2018-07-12T16:42:48.762Z,19.80
2018-07-12T16:45:20.828Z,19.80
2018-07-12T16:47:51.247Z,19.70
2018-07-12T16:50:20.430Z,19.80
2018-07-12T16:52:49.851Z,19.80
2018-07-12T16:55:21.573Z,19.80
2018-07-12T16:57:51.360Z,19.70
2018-07-12T17:00:21.682Z,19.80
2018-07-12T17:02:52.098Z,19.80
2018-07-12T17:05:20.994Z,19.80
2018-07-12T17:07:57.731Z,19.80
2018-07-12T17:10:26.834Z,19.80
2018-07-12T17:12:55.908Z,19.80
2018-07-12T17:15:24.766Z,19.80
2018-07-12T17:17:53.831Z,19.80
2018-07-12T17:20:22.670Z,19.80
2018-07-12T17:22:52.165Z,19.90
2018-07-12T17:25:24.925Z,19.90
2018-07-12T17:27:53.540Z,19.90
2018-07-12T17:30:25.112Z,19.90
2018-07-12T17:33:06.967Z,19.80
2018-07-12T17:35:37.800Z,19.80
2018-07-12T17:38:09.411Z,19.80
2018-07-12T17:40:43.723Z,19.80
2018-07-12T17:43:13.297Z,19.80
2018-07-12T17:45:48.931Z,19.80
2018-07-12T17:48:17.886Z,19.80
2018-07-12T17:50:51.965Z,19.80
2018-07-12T17:53:21.598Z,19.80
2018-07-12T17:55:50.786Z,19.80
2018-07-12T17:58:20.619Z,19.90
2018-07-12T18:00:49.485Z,19.90
2018-07-12T18:03:18.033Z,19.90
2018-07-12T18:05:46.897Z,19.90
2018-07-12T18:08:16.422Z,19.90
2018-07-12T18:10:45.287Z,19.90
2018-07-12T18:13:14.178Z,19.80
2018-07-12T18:15:46.422Z,19.80
2018-07-12T18:18:19.831Z,19.80
2018-07-12T18:20:49.146Z,19.80
2018-07-12T18:23:18.458Z,19.80
2018-07-12T18:25:49.585Z,19.80
2018-07-12T18:28:18.519Z,19.80
2018-07-12T18:30:51.383Z,19.80
2018-07-12T18:33:21.138Z,19.70
2018-07-12T18:35:51.397Z,19.70
2018-07-12T18:38:22.771Z,19.70
2018-07-12T18:40:56.834Z,19.80
2018-07-12T18:43:25.372Z,19.80
2018-07-12T18:45:54.342Z,19.90
2018-07-12T18:48:23.231Z,19.90
2018-07-12T18:50:52.455Z,19.80
2018-07-12T18:53:21.789Z,19.80
2018-07-12T18:55:50.513Z,19.80
2018-07-12T18:58:19.523Z,19.80
2018-07-12T19:00:49.094Z,19.80
2018-07-12T19:03:17.697Z,19.70
2018-07-12T19:05:46.601Z,19.70
2018-07-12T19:08:15.470Z,19.80
2018-07-12T19:10:44.009Z,19.80
2018-07-12T19:13:14.184Z,19.70
2018-07-12T19:15:43.060Z,19.70
2018-07-12T19:18:11.661Z,19.70
2018-07-12T19:20:44.960Z,19.70
2018-07-12T19:23:14.796Z,19.70
2018-07-12T19:25:43.330Z,19.70
2018-07-12T19:28:11.844Z,19.70
2018-07-12T19:30:41.166Z,19.70
2018-07-12T19:33:10.269Z,19.60
2018-07-12T19:35:38.827Z,19.70
2018-07-12T19:38:07.720Z,19.70
2018-07-12T19:40:38.001Z,19.70
2018-07-12T19:43:06.822Z,19.70
2018-07-12T19:45:35.435Z,19.70
2018-07-12T19:48:03.978Z,19.60
2018-07-12T19:50:32.490Z,19.60
2018-07-12T19:53:01.138Z,19.80
2018-07-12T19:55:31.666Z,19.80
2018-07-12T19:58:01.451Z,19.90
2018-07-12T20:00:30.030Z,19.90
2018-07-12T20:14:59.763Z,20.10
2018-07-12T20:17:32.747Z,20.10
2018-07-12T20:20:01.774Z,20.10
2018-07-12T20:22:32.266Z,20.10
2018-07-12T20:25:02.201Z,20.10
2018-07-12T20:27:35.394Z,20.20
2018-07-12T20:30:07.085Z,20.20
2018-07-12T20:32:35.692Z,20.20
2018-07-12T20:35:04.995Z,20.20
2018-07-12T20:37:33.663Z,20.20
2018-07-12T20:40:03.115Z,20.20
2018-07-12T20:42:31.967Z,20.00
2018-07-12T20:45:01.390Z,19.90
2018-07-12T20:47:31.059Z,19.80
2018-07-12T20:50:00.147Z,19.90
2018-07-12T20:52:29.777Z,19.70
2018-07-12T20:54:58.639Z,19.70
2018-07-12T20:57:27.562Z,19.60
2018-07-12T20:59:56.154Z,19.60
2018-07-12T21:02:27.226Z,19.50
2018-07-12T21:04:58.519Z,19.50
2018-07-12T21:07:28.202Z,19.50
2018-07-12T21:09:59.236Z,19.40
2018-07-12T21:12:28.600Z,19.40
2018-07-12T21:14:59.829Z,19.40
2018-07-12T21:17:30.942Z,19.40
2018-07-12T21:20:04.196Z,19.40
2018-07-12T21:22:33.128Z,19.30
2018-07-12T21:25:05.170Z,19.30
2018-07-12T21:27:36.117Z,19.30
2018-07-12T21:30:10.710Z,19.20
2018-07-12T21:32:39.914Z,19.20
2018-07-12T21:35:10.460Z,19.20
2018-07-12T21:37:39.500Z,19.20
2018-07-12T21:40:08.406Z,19.10
2018-07-12T21:42:38.763Z,19.10
2018-07-12T21:45:12.276Z,19.20
2018-07-12T21:47:43.368Z,19.10
2018-07-12T21:50:12.473Z,19.20
2018-07-12T21:52:42.179Z,19.20
2018-07-12T21:55:11.818Z,19.20
2018-07-12T21:57:42.569Z,19.10
2018-07-12T22:00:12.011Z,19.10
2018-07-12T22:02:43.794Z,19.10
2018-07-12T22:08:16.125Z,19.10
2018-07-12T22:13:55.476Z,19.00
2018-07-12T22:16:25.958Z,19.00
2018-07-12T22:19:17.107Z,19.00
2018-07-12T22:21:47.277Z,19.00
2018-07-12T22:24:17.565Z,19.00
2018-07-12T22:29:45.389Z,19.00
2018-07-12T22:32:14.283Z,19.00
2018-07-12T22:34:42.862Z,19.10
2018-07-12T22:37:19.239Z,19.00
2018-07-12T22:39:52.680Z,19.00
2018-07-12T22:42:23.462Z,19.00
2018-07-12T22:44:53.037Z,19.10
2018-07-12T22:47:22.564Z,19.10
2018-07-12T22:50:09.214Z,19.00
2018-07-12T22:52:41.647Z,19.00
2018-07-12T22:55:13.704Z,19.00
2018-07-12T22:57:43.524Z,18.90
2018-07-12T23:00:14.313Z,18.90
2018-07-12T23:02:44.479Z,18.80
2018-07-12T23:05:13.653Z,18.80
2018-07-12T23:07:42.318Z,18.80
2018-07-12T23:10:10.923Z,18.70
2018-07-12T23:12:39.509Z,18.60
2018-07-12T23:15:08.105Z,18.60
2018-07-12T23:17:37.084Z,18.60
2018-07-12T23:20:05.707Z,18.60
2018-07-12T23:22:34.649Z,18.60
2018-07-12T23:25:04.550Z,18.60
2018-07-12T23:27:34.101Z,18.60
2018-07-12T23:30:07.679Z,18.50
2018-07-12T23:32:41.044Z,18.50
2018-07-12T23:35:13.520Z,18.50
2018-07-12T23:37:42.908Z,18.50
2018-07-12T23:40:14.249Z,18.50
2018-07-12T23:42:45.157Z,18.40
2018-07-12T23:45:14.189Z,18.40
2018-07-12T23:47:44.220Z,18.40
2018-07-12T23:50:13.199Z,18.40
2018-07-12T23:52:42.543Z,18.30
2018-07-12T23:55:12.184Z,18.30
2018-07-12T23:57:41.781Z,18.30
